createdAt,value
2023-04-16T00:01:26.151Z,84.70
2023-04-16T00:03:52.747Z,84.54
2023-04-16T00:06:19.393Z,84.61
2023-04-16T00:08:45.883Z,84.64
2023-04-16T00:11:12.584Z,84.68
2023-04-16T00:13:39.070Z,84.64
2023-04-16T00:16:05.951Z,85.07
2023-04-16T00:18:32.424Z,85.38
2023-04-16T00:20:59.541Z,85.21
2023-04-16T00:23:26.021Z,85.09
2023-04-16T00:25:53.745Z,85.14
2023-04-16T00:28:20.456Z,85.09
2023-04-16T00:30:46.892Z,85.00
2023-04-16T00:33:13.454Z,85.40
2023-04-16T00:35:40.065Z,85.21
2023-04-16T00:38:06.494Z,85.46
2023-04-16T00:40:32.919Z,85.22
2023-04-16T00:42:59.404Z,85.38
2023-04-16T00:45:25.871Z,85.14
2023-04-16T00:47:52.409Z,85.33
2023-04-16T00:50:18.988Z,85.46
2023-04-16T00:52:48.325Z,84.97
2023-04-16T00:55:17.618Z,84.94
2023-04-16T00:57:50.057Z,84.77
2023-04-16T01:00:16.798Z,85.10
2023-04-16T01:02:43.507Z,84.98
2023-04-16T01:05:10.148Z,84.87
2023-04-16T01:07:36.810Z,84.98
2023-04-16T01:10:04.091Z,84.99
2023-04-16T01:12:30.611Z,85.07
2023-04-16T01:14:57.317Z,84.80
2023-04-16T01:17:23.829Z,84.83
2023-04-16T01:19:50.471Z,84.90
2023-04-16T01:22:17.190Z,84.47
2023-04-16T01:24:45.015Z,84.49
2023-04-16T01:27:37.527Z,84.81
2023-04-16T01:30:04.966Z,84.89
2023-04-16T01:32:32.297Z,84.81
2023-04-16T01:34:58.788Z,84.80
2023-04-16T01:37:25.416Z,84.70
2023-04-16T01:39:52.034Z,84.66
2023-04-16T01:42:18.413Z,84.72
2023-04-16T01:44:47.610Z,84.76
2023-04-16T01:47:14.294Z,84.73
2023-04-16T01:49:40.761Z,84.70
2023-04-16T01:52:08.440Z,84.60
2023-04-16T01:54:34.851Z,84.56
2023-04-16T01:57:01.751Z,84.58
2023-04-16T01:59:28.156Z,84.52
2023-04-16T02:01:54.744Z,84.55
2023-04-16T02:04:21.329Z,84.15
2023-04-16T02:06:47.722Z,84.07
2023-04-16T02:09:14.120Z,84.04
2023-04-16T02:11:40.614Z,83.96
2023-04-16T02:14:08.506Z,84.01
2023-04-16T02:16:34.946Z,83.75
2023-04-16T02:19:02.229Z,83.80
2023-04-16T02:21:28.864Z,83.86
2023-04-16T02:23:55.398Z,83.73
2023-04-16T02:26:21.809Z,83.75
2023-04-16T02:28:48.301Z,83.84
2023-04-16T02:31:17.865Z,83.97
2023-04-16T02:33:44.295Z,83.87
2023-04-16T02:36:11.267Z,84.08
2023-04-16T02:38:37.842Z,83.92
2023-04-16T02:41:04.383Z,84.22
2023-04-16T02:43:30.772Z,84.13
2023-04-16T02:45:59.193Z,84.20
2023-04-16T02:48:25.812Z,84.18
2023-04-16T02:50:52.219Z,84.09
2023-04-16T02:53:19.283Z,84.23
2023-04-16T02:55:52.856Z,84.15
2023-04-16T02:58:24.204Z,84.31
2023-04-16T03:00:51.362Z,84.22
2023-04-16T03:03:18.079Z,83.93
2023-04-16T03:05:44.513Z,84.33
2023-04-16T03:08:14.452Z,84.15
2023-04-16T03:10:41.533Z,84.24
2023-04-16T03:13:07.980Z,84.18
2023-04-16T03:15:34.433Z,84.11
2023-04-16T03:18:01.050Z,84.15
2023-04-16T03:20:27.590Z,83.84
2023-04-16T03:22:53.991Z,84.02
2023-04-16T03:25:20.731Z,84.01
2023-04-16T03:27:47.189Z,84.14
2023-04-16T03:30:14.779Z,84.04
2023-04-16T03:32:41.622Z,84.12
2023-04-16T03:35:09.208Z,84.32
2023-04-16T03:37:35.836Z,84.35
2023-04-16T03:40:02.235Z,84.22
2023-04-16T03:42:28.698Z,84.32
2023-04-16T03:44:55.195Z,84.40
2023-04-16T03:47:21.700Z,84.33
2023-04-16T03:49:48.148Z,84.47
2023-04-16T03:52:14.542Z,84.35
2023-04-16T03:54:40.964Z,84.37
2023-04-16T03:57:07.339Z,84.24
2023-04-16T03:59:33.937Z,84.44
2023-04-16T04:02:00.542Z,84.54
2023-04-16T04:04:27.269Z,84.54
2023-04-16T04:06:53.824Z,84.27
2023-04-16T04:09:20.298Z,84.37
2023-04-16T04:11:47.342Z,84.53
2023-04-16T04:14:13.778Z,84.18
2023-04-16T04:16:40.458Z,84.30
2023-04-16T04:19:07.017Z,84.14
2023-04-16T04:21:33.621Z,84.37
2023-04-16T04:24:00.046Z,84.36
2023-04-16T04:26:26.554Z,84.54
2023-04-16T04:28:52.995Z,84.65
2023-04-16T04:31:19.477Z,84.63
2023-04-16T04:33:46.349Z,84.46
2023-04-16T04:36:12.723Z,84.82
2023-04-16T04:38:39.110Z,84.79
2023-04-16T04:41:05.678Z,84.84
2023-04-16T04:43:32.092Z,84.91
2023-04-16T04:45:58.568Z,84.92
2023-04-16T04:48:26.768Z,84.84
2023-04-16T04:50:53.872Z,84.95
2023-04-16T04:53:20.589Z,84.85
2023-04-16T04:55:49.233Z,84.55
2023-04-16T04:58:17.365Z,84.72
2023-04-16T05:00:43.948Z,84.70
2023-04-16T05:03:12.417Z,84.55
2023-04-16T05:05:40.056Z,84.34
2023-04-16T05:08:06.478Z,84.51
2023-04-16T05:10:32.921Z,84.38
2023-04-16T05:12:59.321Z,84.05
2023-04-16T05:15:25.791Z,84.36
2023-04-16T05:17:52.230Z,84.11
2023-04-16T05:20:18.834Z,83.92
2023-04-16T05:22:45.209Z,83.91
2023-04-16T05:25:11.699Z,83.78
2023-04-16T05:27:38.376Z,83.55
2023-04-16T05:30:05.347Z,83.58
2023-04-16T05:32:31.854Z,83.26
2023-04-16T05:34:58.423Z,83.50
2023-04-16T05:37:24.908Z,83.60
2023-04-16T05:39:51.357Z,83.63
2023-04-16T05:42:17.841Z,83.45
2023-04-16T05:44:44.214Z,83.82
2023-04-16T05:47:10.804Z,83.69
2023-04-16T05:49:37.354Z,83.20
2023-04-16T05:52:04.613Z,83.13
2023-04-16T05:54:31.309Z,83.30
2023-04-16T05:56:57.737Z,83.39
2023-04-16T05:59:24.204Z,83.27
2023-04-16T06:01:50.845Z,83.45
2023-04-16T06:04:17.414Z,83.58
2023-04-16T06:06:44.013Z,83.11
2023-04-16T06:09:10.741Z,83.23
2023-04-16T06:11:37.415Z,83.22
2023-04-16T06:14:03.808Z,83.53
2023-04-16T06:16:30.444Z,83.45
2023-04-16T06:18:56.920Z,83.24
2023-04-16T06:21:23.547Z,83.29
2023-04-16T06:23:50.191Z,83.48
2023-04-16T06:26:16.598Z,83.25
2023-04-16T06:28:42.989Z,83.20
2023-04-16T06:31:09.476Z,83.36
2023-04-16T06:33:36.120Z,83.17
2023-04-16T06:36:02.573Z,83.10
2023-04-16T06:38:29.035Z,83.04
2023-04-16T06:40:56.451Z,83.13
2023-04-16T06:43:23.275Z,83.09
2023-04-16T06:45:50.017Z,83.16
2023-04-16T06:48:16.486Z,83.23
2023-04-16T06:50:42.891Z,83.20
2023-04-16T06:53:09.485Z,83.43
2023-04-16T06:55:35.873Z,83.23
2023-04-16T06:58:02.289Z,83.25
2023-04-16T07:00:28.691Z,83.03
2023-04-16T07:02:57.100Z,83.04
2023-04-16T07:05:25.163Z,82.85
2023-04-16T07:07:51.630Z,83.10
2023-04-16T07:10:18.300Z,83.27
2023-04-16T07:12:44.884Z,83.28
2023-04-16T07:15:11.403Z,82.96
2023-04-16T07:17:38.099Z,82.92
2023-04-16T07:20:05.142Z,83.07
2023-04-16T07:22:31.618Z,82.79
2023-04-16T07:24:58.015Z,82.61
2023-04-16T07:27:33.707Z,83.06
2023-04-16T07:30:00.147Z,82.89
2023-04-16T07:32:26.709Z,82.60
2023-04-16T07:34:53.286Z,82.67
2023-04-16T07:37:19.834Z,82.79
2023-04-16T07:39:47.207Z,82.78
2023-04-16T07:42:14.086Z,82.71
2023-04-16T07:44:41.050Z,82.59
2023-04-16T07:47:07.523Z,82.86
2023-04-16T07:49:33.906Z,82.96
2023-04-16T07:52:00.458Z,82.59
2023-04-16T07:54:28.990Z,82.53
2023-04-16T07:56:55.905Z,82.85
2023-04-16T07:59:24.048Z,82.76
2023-04-16T08:01:53.214Z,82.59
2023-04-16T08:04:24.522Z,82.60
2023-04-16T08:06:52.058Z,82.39
2023-04-16T08:09:20.521Z,82.23
2023-04-16T08:11:49.141Z,82.15
2023-04-16T08:14:16.956Z,81.97
2023-04-16T08:16:43.351Z,82.20
2023-04-16T08:19:10.115Z,82.18
2023-04-16T08:21:36.827Z,82.09
2023-04-16T08:24:03.258Z,82.44
2023-04-16T08:26:29.708Z,82.13
2023-04-16T08:28:56.433Z,81.83
2023-04-16T08:31:22.861Z,82.25
2023-04-16T08:33:49.382Z,82.18
2023-04-16T08:36:15.891Z,82.00
2023-04-16T08:38:42.407Z,81.85
2023-04-16T08:41:12.297Z,82.02
2023-04-16T08:43:43.475Z,81.78
2023-04-16T08:46:11.616Z,81.93
2023-04-16T08:48:41.938Z,81.72
2023-04-16T08:51:10.979Z,82.09
2023-04-16T08:53:49.297Z,81.77
2023-04-16T08:56:18.141Z,82.05
2023-04-16T08:58:47.521Z,82.03
2023-04-16T09:01:14.784Z,81.97
2023-04-16T09:03:41.748Z,82.26
2023-04-16T09:06:09.909Z,82.17
2023-04-16T09:08:38.062Z,81.63
2023-04-16T09:11:04.738Z,81.56
2023-04-16T09:13:34.204Z,81.87
2023-04-16T09:16:01.136Z,81.21
2023-04-16T09:18:28.414Z,81.84
2023-04-16T09:20:56.364Z,81.67
2023-04-16T09:23:23.056Z,81.71
2023-04-16T09:25:49.467Z,81.35
2023-04-16T09:28:43.166Z,81.27
2023-04-16T09:31:13.996Z,81.20
2023-04-16T09:33:41.144Z,81.35
2023-04-16T09:36:07.720Z,81.10
2023-04-16T09:38:54.918Z,81.07
2023-04-16T09:41:30.791Z,81.02
2023-04-16T09:43:59.170Z,80.84
2023-04-16T09:46:35.147Z,80.73
2023-04-16T09:49:16.175Z,81.23
2023-04-16T09:51:44.258Z,81.10
2023-04-16T09:54:10.721Z,80.91
2023-04-16T09:56:45.806Z,81.10
2023-04-16T09:59:18.668Z,80.86
2023-04-16T10:01:49.548Z,80.83
2023-04-16T10:04:16.700Z,81.32
2023-04-16T10:06:43.407Z,80.99
2023-04-16T10:09:10.938Z,81.27
2023-04-16T10:11:37.809Z,81.16
2023-04-16T10:14:04.270Z,80.83
2023-04-16T10:16:30.857Z,80.94
2023-04-16T10:18:58.499Z,80.84
2023-04-16T10:21:33.651Z,80.79
2023-04-16T10:24:00.559Z,80.90
2023-04-16T10:26:29.080Z,80.72
2023-04-16T10:28:56.345Z,80.70
2023-04-16T10:31:23.252Z,80.39
2023-04-16T10:33:50.252Z,80.49
2023-04-16T10:36:23.498Z,80.29
2023-04-16T10:38:52.503Z,80.13
2023-04-16T10:41:22.543Z,80.44
2023-04-16T10:43:52.785Z,80.26
2023-04-16T10:46:25.207Z,80.26
2023-04-16T10:48:54.584Z,80.55
2023-04-16T10:51:35.316Z,80.59
2023-04-16T10:54:16.825Z,80.60
2023-04-16T10:56:44.824Z,80.76
2023-04-16T10:59:12.129Z,80.64
2023-04-16T11:01:45.060Z,80.88
2023-04-16T11:04:20.883Z,80.52
2023-04-16T11:07:18.900Z,80.76
2023-04-16T11:10:02.108Z,81.02
2023-04-16T11:12:39.996Z,80.75
2023-04-16T11:15:12.419Z,81.64
2023-04-16T11:17:40.736Z,80.83
2023-04-16T11:20:17.501Z,80.41
2023-04-16T11:22:48.379Z,80.22
2023-04-16T11:25:34.129Z,80.48
2023-04-16T11:28:02.548Z,80.81
2023-04-16T11:30:34.649Z,80.66
2023-04-16T11:33:05.368Z,80.54
2023-04-16T11:35:32.354Z,80.50
2023-04-16T11:37:59.209Z,80.34
2023-04-16T11:40:29.977Z,80.03
2023-04-16T11:43:02.873Z,80.42
2023-04-16T11:45:29.365Z,81.14
2023-04-16T11:47:57.746Z,81.03
2023-04-16T11:50:26.068Z,81.58
2023-04-16T11:52:54.643Z,81.35
2023-04-16T11:55:22.242Z,80.96
2023-04-16T11:57:49.391Z,81.34
2023-04-16T12:00:18.143Z,81.16
2023-04-16T12:02:50.424Z,81.35
2023-04-16T12:05:33.952Z,81.25
2023-04-16T12:08:03.577Z,81.30
2023-04-16T12:10:34.838Z,81.34
2023-04-16T12:13:12.667Z,80.99
2023-04-16T12:15:49.255Z,81.29
2023-04-16T12:18:17.075Z,81.28
2023-04-16T12:20:44.660Z,81.08
2023-04-16T12:23:26.501Z,81.17
2023-04-16T12:25:53.888Z,81.27
2023-04-16T12:28:46.772Z,81.18
2023-04-16T12:31:14.489Z,80.93
2023-04-16T12:33:42.501Z,81.19
2023-04-16T12:36:19.265Z,81.46
2023-04-16T12:38:46.541Z,81.43
2023-04-16T12:41:13.277Z,81.09
2023-04-16T12:43:39.977Z,81.62
2023-04-16T12:46:06.897Z,81.45
2023-04-16T12:48:33.989Z,81.32
2023-04-16T12:51:00.751Z,81.38
2023-04-16T12:53:27.430Z,81.22
2023-04-16T12:55:54.283Z,81.50
2023-04-16T12:58:20.947Z,80.95
2023-04-16T13:00:47.469Z,81.39
2023-04-16T13:03:14.172Z,81.21
2023-04-16T13:05:40.907Z,81.42
2023-04-16T13:08:07.454Z,81.06
2023-04-16T13:10:35.332Z,81.30
2023-04-16T13:13:01.800Z,81.51
2023-04-16T13:15:28.887Z,81.61
2023-04-16T13:17:55.333Z,81.74
2023-04-16T13:20:24.347Z,81.55
2023-04-16T13:22:51.122Z,81.44
2023-04-16T13:25:17.550Z,81.32
2023-04-16T13:27:44.055Z,81.06
2023-04-16T13:30:10.984Z,81.17
2023-04-16T13:32:37.802Z,80.90
2023-04-16T13:35:04.591Z,80.94
2023-04-16T13:37:31.059Z,81.04
2023-04-16T13:39:57.568Z,80.74
2023-04-16T13:42:24.020Z,81.00
2023-04-16T13:44:53.164Z,80.91
2023-04-16T13:47:19.722Z,80.74
2023-04-16T13:49:46.273Z,81.05
2023-04-16T13:52:12.766Z,80.91
2023-04-16T13:55:52.590Z,80.08
2023-04-16T14:05:05.006Z,80.16
2023-04-16T14:14:03.152Z,80.04
2023-04-16T14:16:29.600Z,79.45
2023-04-16T14:18:56.501Z,79.23
2023-04-16T14:21:22.912Z,79.19
2023-04-16T14:23:49.623Z,79.10
2023-04-16T14:26:16.261Z,79.36
2023-04-16T14:28:42.755Z,79.37
2023-04-16T14:31:09.193Z,79.15
2023-04-16T14:33:35.716Z,79.24
2023-04-16T14:36:03.388Z,79.75
2023-04-16T14:38:31.182Z,79.70
2023-04-16T14:40:57.682Z,79.61
2023-04-16T14:43:24.085Z,79.35
2023-04-16T14:45:52.577Z,79.25
2023-04-16T14:48:19.295Z,79.27
2023-04-16T14:50:45.832Z,79.26
2023-04-16T14:53:12.345Z,79.08
2023-04-16T14:55:38.796Z,79.00
2023-04-16T14:58:05.464Z,79.23
2023-04-16T15:00:34.650Z,79.09
2023-04-16T15:03:01.297Z,78.36
2023-04-16T15:05:27.865Z,78.35
2023-04-16T15:07:55.022Z,79.26
2023-04-16T15:10:21.493Z,78.79
2023-04-16T15:12:47.898Z,78.84
2023-04-16T15:15:14.485Z,78.66
2023-04-16T15:17:41.057Z,78.61
2023-04-16T15:20:08.673Z,78.61
2023-04-16T15:22:35.339Z,79.09
2023-04-16T15:25:02.221Z,78.32
2023-04-16T15:27:28.650Z,79.13
2023-04-16T15:29:55.116Z,78.91
2023-04-16T15:32:21.569Z,78.83
2023-04-16T15:34:48.037Z,78.79
2023-04-16T15:37:15.460Z,78.90
2023-04-16T15:39:42.116Z,78.43
2023-04-16T15:42:08.657Z,78.85
2023-04-16T15:44:35.064Z,78.88
2023-04-16T15:47:01.566Z,78.86
2023-04-16T15:49:27.991Z,79.44
2023-04-16T15:51:55.571Z,79.20
2023-04-16T15:54:23.515Z,79.90
2023-04-16T15:56:50.334Z,79.81
2023-04-16T15:59:16.878Z,79.92
2023-04-16T16:01:43.364Z,79.95
2023-04-16T16:04:10.047Z,80.32
2023-04-16T16:06:38.075Z,79.73
2023-04-16T16:09:04.941Z,79.47
2023-04-16T16:11:32.612Z,79.35
2023-04-16T16:14:01.486Z,79.77
2023-04-16T16:16:28.442Z,80.08
2023-04-16T16:18:55.099Z,80.56
2023-04-16T16:21:21.709Z,80.73
2023-04-16T16:23:48.094Z,80.79
2023-04-16T16:26:14.591Z,81.33
2023-04-16T16:28:43.669Z,80.87
2023-04-16T16:31:10.613Z,81.04
2023-04-16T16:33:39.041Z,80.90
2023-04-16T16:36:10.274Z,81.47
2023-04-16T16:38:36.747Z,81.50
2023-04-16T16:41:03.159Z,80.94
2023-04-16T16:43:29.631Z,81.12
2023-04-16T16:45:56.213Z,81.02
2023-04-16T16:48:22.622Z,81.56
2023-04-16T16:50:49.025Z,80.84
2023-04-16T16:53:15.788Z,81.38
2023-04-16T16:55:42.259Z,81.37
2023-04-16T16:58:09.687Z,81.86
2023-04-16T17:00:36.228Z,81.69
2023-04-16T17:03:02.985Z,81.86
2023-04-16T17:05:29.700Z,81.91
2023-04-16T17:07:56.205Z,81.95
2023-04-16T17:10:23.071Z,81.98
2023-04-16T17:12:50.454Z,81.84
2023-04-16T17:15:21.946Z,81.79
2023-04-16T17:17:48.766Z,81.73
2023-04-16T17:20:15.713Z,81.63
2023-04-16T17:22:42.680Z,81.53
2023-04-16T17:25:09.430Z,81.52
2023-04-16T17:27:36.162Z,81.53
2023-04-16T17:30:05.306Z,81.41
2023-04-16T17:32:32.723Z,81.20
2023-04-16T17:35:01.019Z,81.49
2023-04-16T17:37:27.606Z,81.20
2023-04-16T17:42:20.559Z,81.42
2023-04-16T17:44:47.374Z,81.34
2023-04-16T17:47:13.783Z,81.53
2023-04-16T17:49:40.222Z,81.68
2023-04-16T17:52:06.836Z,81.54
2023-04-16T17:54:33.241Z,81.83
2023-04-16T17:56:59.654Z,81.57
2023-04-16T17:59:26.263Z,81.56
2023-04-16T18:01:52.965Z,82.04
2023-04-16T18:04:19.785Z,82.30
2023-04-16T18:06:46.531Z,82.49
2023-04-16T18:09:14.227Z,82.59
2023-04-16T18:11:40.728Z,82.73
2023-04-16T18:14:09.769Z,82.51
2023-04-16T18:16:36.507Z,82.77
2023-04-16T18:19:02.987Z,82.74
2023-04-16T18:21:30.242Z,82.86
2023-04-16T18:23:56.769Z,82.82
2023-04-16T18:26:23.346Z,82.47
2023-04-16T18:28:49.818Z,82.46
2023-04-16T18:31:18.984Z,82.28
2023-04-16T18:33:56.589Z,81.98
2023-04-16T18:36:24.455Z,81.80
2023-04-16T18:39:00.962Z,81.85
2023-04-16T18:41:28.967Z,82.29
2023-04-16T18:43:55.445Z,82.04
2023-04-16T18:46:21.902Z,81.79
2023-04-16T18:48:48.406Z,82.02
2023-04-16T18:51:16.286Z,81.82
2023-04-16T18:53:44.374Z,81.58
2023-04-16T18:56:11.585Z,81.63
2023-04-16T18:58:38.137Z,81.74
2023-04-16T19:01:05.207Z,81.66
2023-04-16T19:03:32.269Z,82.06
2023-04-16T19:05:58.921Z,82.30
2023-04-16T19:08:25.375Z,81.80
2023-04-16T19:10:51.829Z,81.73
2023-04-16T19:13:18.336Z,81.82
2023-04-16T19:15:44.885Z,81.72
2023-04-16T19:18:11.286Z,81.80
2023-04-16T19:20:38.126Z,81.75
2023-04-16T19:23:05.639Z,81.61
2023-04-16T19:25:32.655Z,81.65
2023-04-16T19:27:59.314Z,81.64
2023-04-16T19:30:26.394Z,81.88
2023-04-16T19:32:55.141Z,82.06
2023-04-16T19:35:22.187Z,81.71
2023-04-16T19:37:48.722Z,81.46
2023-04-16T19:40:15.318Z,81.64
2023-04-16T19:42:41.787Z,81.35
2023-04-16T19:45:08.468Z,81.43
2023-04-16T19:47:34.875Z,81.43
2023-04-16T19:50:01.459Z,81.34
2023-04-16T19:52:27.871Z,81.56
2023-04-16T19:54:54.301Z,81.43
2023-04-16T19:57:20.913Z,81.38
2023-04-16T19:59:47.383Z,81.61
2023-04-16T20:02:13.950Z,81.55
2023-04-16T20:04:40.522Z,81.22
2023-04-16T20:07:06.921Z,81.51
2023-04-16T20:09:33.335Z,81.39
2023-04-16T20:12:00.646Z,81.29
2023-04-16T20:14:27.137Z,81.61
2023-04-16T20:16:54.213Z,81.33
2023-04-16T20:19:22.005Z,81.59
2023-04-16T20:21:48.380Z,81.36
2023-04-16T20:24:15.348Z,81.37
2023-04-16T20:26:41.916Z,81.49
2023-04-16T20:29:10.000Z,81.58
2023-04-16T20:31:36.775Z,81.92
2023-04-16T20:34:03.754Z,81.70
2023-04-16T20:36:30.463Z,81.74
2023-04-16T20:38:57.340Z,81.69
2023-04-16T20:41:25.326Z,81.72
2023-04-16T20:43:52.954Z,81.94
2023-04-16T20:46:24.211Z,81.86
2023-04-16T20:48:51.594Z,81.98
2023-04-16T20:51:18.151Z,81.69
2023-04-16T20:53:44.650Z,81.69
2023-04-16T20:56:14.640Z,81.75
2023-04-16T20:58:41.855Z,81.98
2023-04-16T21:01:08.456Z,82.01
2023-04-16T21:03:35.209Z,81.61
2023-04-16T21:06:01.957Z,81.29
2023-04-16T21:08:28.379Z,81.27
2023-04-16T21:10:54.788Z,81.24
2023-04-16T21:13:21.735Z,81.24
2023-04-16T21:15:48.286Z,81.49
2023-04-16T21:18:14.912Z,81.24
2023-04-16T21:20:41.342Z,80.95
2023-04-16T21:23:07.886Z,80.96
2023-04-16T21:25:34.322Z,80.84
2023-04-16T21:28:00.892Z,80.75
2023-04-16T21:30:27.368Z,80.72
2023-04-16T21:32:53.839Z,80.96
2023-04-16T21:35:20.361Z,80.79
2023-04-16T21:37:46.832Z,81.18
2023-04-16T21:40:13.422Z,80.95
2023-04-16T21:42:42.115Z,80.79
2023-04-16T21:45:09.584Z,81.33
2023-04-16T21:47:36.816Z,80.96
2023-04-16T21:50:03.957Z,81.27
2023-04-16T21:52:32.694Z,81.61
2023-04-16T21:55:00.116Z,81.13
2023-04-16T21:57:26.600Z,81.13
2023-04-16T21:59:53.066Z,81.62
2023-04-16T22:02:19.673Z,81.15
2023-04-16T22:04:46.262Z,81.23
2023-04-16T22:07:12.707Z,81.08
2023-04-16T22:09:39.673Z,80.98
2023-04-16T22:12:12.758Z,81.13
2023-04-16T22:14:44.005Z,81.00
2023-04-16T22:17:17.105Z,81.36
2023-04-16T22:19:44.517Z,81.32
2023-04-16T22:22:10.976Z,81.46
2023-04-16T22:24:37.447Z,81.13
2023-04-16T22:27:04.171Z,81.05
2023-04-16T22:29:30.625Z,81.07
2023-04-16T22:31:57.273Z,81.09
2023-04-16T22:34:23.771Z,81.33
2023-04-16T22:36:50.218Z,81.24
2023-04-16T22:39:16.634Z,81.41
2023-04-16T22:41:43.025Z,81.17
2023-04-16T22:44:09.468Z,81.25
2023-04-16T22:46:36.375Z,81.15
2023-04-16T22:49:02.861Z,81.05
2023-04-16T22:51:30.558Z,80.81
2023-04-16T22:53:57.022Z,80.95
2023-04-16T22:56:28.462Z,80.67
2023-04-16T22:58:54.948Z,80.78
2023-04-16T23:01:21.569Z,80.89
2023-04-16T23:03:48.065Z,80.49
2023-04-16T23:06:14.770Z,80.54
2023-04-16T23:08:41.384Z,79.89
2023-04-16T23:11:07.845Z,80.32
2023-04-16T23:13:34.224Z,80.31
2023-04-16T23:16:00.758Z,80.10
2023-04-16T23:18:33.443Z,79.84
2023-04-16T23:20:59.844Z,80.24
2023-04-16T23:23:26.386Z,80.31
2023-04-16T23:25:55.735Z,80.35
2023-04-16T23:28:22.303Z,80.77
2023-04-16T23:30:52.839Z,80.73
2023-04-16T23:33:19.394Z,80.64
2023-04-16T23:35:47.033Z,80.79
2023-04-16T23:38:13.418Z,80.87
2023-04-16T23:40:39.903Z,81.38
2023-04-16T23:43:06.365Z,81.39
2023-04-16T23:45:32.866Z,81.60
2023-04-16T23:47:59.379Z,81.37
2023-04-16T23:50:25.955Z,81.33
2023-04-16T23:52:52.466Z,81.45
2023-04-16T23:55:19.043Z,81.27
2023-04-16T23:57:45.502Z,81.34
